Time;durP1;ratioP1;P1;durP2;ratioP2;P2;SDS_P1;SDS_P2;PMS_P1;PMS_P2;Temp;Humidity;BMP_temperature;BMP_pressure;BME280_temperature;BME280_humidity;BME280_pressure;Samples;Min_cycle;Max_cycle;Signal;HPM_P1;HPM_P2
2021/03/06 00:01:49;;;;;;;;;;;;;;;-0.78;84.40;100705.91;5032471;28;19926;-78
2021/03/06 00:04:14;;;;;;;;;;;;;;;-0.62;84.33;100699.81;5047822;28;19982;-78
2021/03/06 00:06:40;;;;;;;;;;;;;;;-0.75;84.41;100700.13;5033353;28;20370;-78
2021/03/06 00:09:05;;;;;;;;;;;;;;;-1.01;84.98;100704.97;5015532;28;19924;-78
2021/03/06 00:11:30;;;;;;;;;;;;;;;-0.86;85.27;100709.81;5053194;28;19931;-79
2021/03/06 00:13:56;;;;;;;;;;;;;;;-0.57;84.08;100700.00;5033130;28;19913;-78
2021/03/06 00:16:21;;;;;;;;;;;;;;;-0.89;84.12;100692.84;5032535;28;19921;-78
2021/03/06 00:18:46;;;;;;;;;;;;;;;-0.82;84.70;100698.16;5045409;28;19917;-78
2021/03/06 00:21:12;;;;;;;;;;;;;;;-0.90;84.12;100701.22;5047274;28;19925;-79
2021/03/06 00:23:37;;;;;;;;;;;;;;;-1.06;85.28;100701.41;5049330;28;19924;-78
2021/03/06 00:26:02;;;;;;;;;;;;;;;-1.11;85.56;100705.41;5018654;28;20336;-79
2021/03/06 00:28:28;;;;;;;;;;;;;;;-1.08;85.30;100711.44;5049848;28;19921;-78
2021/03/06 00:30:53;;;;;;;;;;;;;;;-1.26;84.85;100719.09;5051820;28;19931;-78
2021/03/06 00:33:18;;;;;;;;;;;;;;;-1.19;85.49;100714.31;5031287;28;20162;-78
2021/03/06 00:35:44;;;;;;;;;;;;;;;-0.89;85.23;100712.19;5052753;28;20043;-78
2021/03/06 00:38:10;;;;;;;;;;;;;;;-1.29;85.76;100721.50;5031542;28;20661;-79
2021/03/06 00:40:35;;;;;;;;;;;;;;;-1.06;85.49;100714.03;5051363;28;20388;-79
2021/03/06 00:43:01;;;;;;;;;;;;;;;-1.16;85.57;100714.47;5049657;28;20338;-78
2021/03/06 00:45:26;;;;;;;;;;;;;;;-1.18;84.67;100711.84;5050934;28;20333;-78
2021/03/06 00:47:51;;;;;;;;;;;;;;;-0.94;83.67;100712.00;5050353;28;19917;-78
2021/03/06 00:50:20;;;;;;;;;;;;;;;-0.93;84.03;100707.84;5050201;28;19921;-78
2021/03/06 00:52:45;;;;;;;;;;;;;;;-0.99;84.49;100712.63;5050865;28;19920;-79
2021/03/06 00:55:11;;;;;;;;;;;;;;;-1.01;84.96;100702.44;5033655;28;19986;-79
2021/03/06 00:57:36;;;;;;;;;;;;;;;-0.86;84.69;100702.22;5030571;28;20337;-78
2021/03/06 01:00:03;;;;;;;;;;;;;;;-1.32;86.21;100706.22;5034744;28;19928;-79
2021/03/06 01:02:28;;;;;;;;;;;;;;;-0.81;85.31;100700.75;5019757;28;19927;-79
2021/03/06 01:04:54;;;;;;;;;;;;;;;-0.85;84.26;100704.81;5053889;28;19920;-78
2021/03/06 01:07:19;;;;;;;;;;;;;;;-1.30;85.10;100704.63;5052807;28;19978;-79
2021/03/06 01:09:44;;;;;;;;;;;;;;;-1.23;86.09;100699.81;5056380;28;19936;-78
2021/03/06 01:12:10;;;;;;;;;;;;;;;-0.80;84.26;100707.53;5027677;28;19939;-79
2021/03/06 01:14:35;;;;;;;;;;;;;;;-0.95;85.14;100705.25;5054060;28;19946;-78
2021/03/06 01:17:01;;;;;;;;;;;;;;;-1.11;84.96;100703.72;5036557;28;20277;-78
2021/03/06 01:19:26;;;;;;;;;;;;;;;-1.53;85.68;100703.63;5037626;28;20313;-78
2021/03/06 01:21:52;;;;;;;;;;;;;;;-1.26;85.10;100703.91;5047997;28;20341;-78
2021/03/06 01:24:17;;;;;;;;;;;;;;;-1.81;86.64;100714.13;5037091;28;20441;-79
2021/03/06 01:26:43;;;;;;;;;;;;;;;-2.22;88.57;100705.50;5052329;28;19920;-78
2021/03/06 01:29:08;;;;;;;;;;;;;;;-1.22;86.56;100696.50;5019448;28;19925;-78
2021/03/06 01:31:33;;;;;;;;;;;;;;;-1.56;84.74;100710.19;5037301;28;19966;-79
2021/03/06 01:33:59;;;;;;;;;;;;;;;-1.54;85.32;100706.91;5019430;28;19917;-79
2021/03/06 01:36:24;;;;;;;;;;;;;;;-1.30;84.04;100694.50;5036406;28;20002;-78
2021/03/06 01:38:49;;;;;;;;;;;;;;;-0.59;82.25;100694.03;5054819;28;20155;-78
2021/03/06 01:41:15;;;;;;;;;;;;;;;-1.36;82.42;100704.34;5036468;28;20400;-78
2021/03/06 01:43:40;;;;;;;;;;;;;;;-1.41;83.32;100705.81;5038692;28;20551;-78
2021/03/06 01:46:06;;;;;;;;;;;;;;;-0.95;83.37;100702.72;5038713;28;20111;-78
2021/03/06 01:48:31;;;;;;;;;;;;;;;-0.80;81.77;100704.13;5054555;28;19928;-79
2021/03/06 01:50:56;;;;;;;;;;;;;;;-1.48;84.15;100701.28;5016247;28;19920;-78
2021/03/06 01:53:23;;;;;;;;;;;;;;;-1.99;85.16;100708.25;5035145;28;20061;-79
2021/03/06 01:55:48;;;;;;;;;;;;;;;-1.69;84.92;100704.59;5035020;28;19921;-77
2021/03/06 01:58:14;;;;;;;;;;;;;;;-1.22;84.37;100694.81;5055122;28;19923;-78
2021/03/06 02:00:40;;;;;;;;;;;;;;;-1.23;81.86;100692.22;5032695;28;20442;-79
2021/03/06 02:03:06;;;;;;;;;;;;;;;-1.30;82.71;100688.56;5026116;28;20038;-78
2021/03/06 02:05:31;;;;;;;;;;;;;;;-0.99;82.87;100695.78;5027261;28;20298;-79
2021/03/06 02:07:56;;;;;;;;;;;;;;;-0.67;80.95;100689.53;5053034;28;19927;-78
2021/03/06 02:10:26;;;;;;;;;;;;;;;-1.22;81.26;100696.50;5037295;28;19940;-79
2021/03/06 02:13:00;;;;;;;;;;;;;;;-1.72;83.42;100698.53;5049665;28;19925;-79
2021/03/06 02:15:42;;;;;;;;;;;;;;;-1.43;82.80;100692.25;5024891;28;20322;-79
2021/03/06 02:18:10;;;;;;;;;;;;;;;-2.01;86.48;100702.25;5052157;28;19952;-79
2021/03/06 02:20:45;;;;;;;;;;;;;;;-1.55;84.42;100700.16;5051314;28;19919;-79
2021/03/06 02:23:11;;;;;;;;;;;;;;;-2.02;85.31;100698.00;5054136;28;19938;-78
2021/03/06 02:25:55;;;;;;;;;;;;;;;-2.08;86.06;100688.47;5052257;28;20424;-78
2021/03/06 02:28:29;;;;;;;;;;;;;;;-1.71;86.69;100687.63;5051632;28;20448;-78
2021/03/06 02:30:55;;;;;;;;;;;;;;;-1.18;83.59;100688.25;5049044;28;19920;-79
2021/03/06 02:33:20;;;;;;;;;;;;;;;-1.87;84.90;100683.56;5050014;28;19927;-78
2021/03/06 02:35:45;;;;;;;;;;;;;;;-1.94;85.81;100686.59;5053085;28;19969;-79
2021/03/06 02:38:11;;;;;;;;;;;;;;;-2.27;86.61;100691.81;5034929;28;19928;-78
2021/03/06 02:40:36;;;;;;;;;;;;;;;-1.83;85.30;100693.00;5035312;28;20742;-78
2021/03/06 02:43:02;;;;;;;;;;;;;;;-1.99;86.78;100693.94;5036552;28;19913;-79
2021/03/06 02:45:28;;;;;;;;;;;;;;;-1.85;85.62;100678.56;5051723;28;19921;-78
2021/03/06 02:47:53;;;;;;;;;;;;;;;-2.25;86.71;100680.16;5034011;28;19928;-78
2021/03/06 02:50:18;;;;;;;;;;;;;;;-2.38;87.77;100692.97;5032718;28;19920;-78
2021/03/06 02:52:44;;;;;;;;;;;;;;;-2.46;88.14;100689.22;5052152;28;20230;-79
2021/03/06 02:55:10;;;;;;;;;;;;;;;-2.62;89.10;100691.03;5033531;28;19943;-79
2021/03/06 02:57:45;;;;;;;;;;;;;;;-2.31;88.64;100684.91;5052094;28;20535;-78
2021/03/06 03:00:29;;;;;;;;;;;;;;;-2.80;90.43;100678.38;5053421;28;19924;-78
2021/03/06 03:03:00;;;;;;;;;;;;;;;-2.76;90.75;100682.78;5048607;28;20482;-79
2021/03/06 03:05:28;;;;;;;;;;;;;;;-2.51;89.66;100686.47;5050803;28;21112;-79
2021/03/06 03:07:58;;;;;;;;;;;;;;;-2.29;88.38;100688.34;5026227;28;19920;-78
2021/03/06 03:10:23;;;;;;;;;;;;;;;-2.25;88.28;100682.66;5028650;28;19951;-78
2021/03/06 03:12:54;;;;;;;;;;;;;;;-2.32;87.66;100681.50;5034555;28;20009;-79
2021/03/06 03:15:36;;;;;;;;;;;;;;;-2.34;87.87;100685.63;5049249;28;20389;-79
2021/03/06 03:18:02;;;;;;;;;;;;;;;-2.29;88.10;100682.44;5051662;28;20431;-78
2021/03/06 03:20:31;;;;;;;;;;;;;;;-2.33;88.07;100679.81;5031849;28;19921;-79
2021/03/06 03:23:15;;;;;;;;;;;;;;;-2.67;88.60;100679.81;5048297;28;20260;-78
2021/03/06 03:25:41;;;;;;;;;;;;;;;-2.23;88.03;100688.66;5051549;28;21161;-79
2021/03/06 03:28:07;;;;;;;;;;;;;;;-2.39;87.36;100681.16;5049952;28;19935;-79
2021/03/06 03:30:33;;;;;;;;;;;;;;;-2.27;88.07;100684.25;5052042;28;19917;-78
2021/03/06 03:32:58;;;;;;;;;;;;;;;-2.14;87.38;100678.97;5034812;28;19921;-79
2021/03/06 03:35:24;;;;;;;;;;;;;;;-2.55;88.91;100682.94;5052383;28;20558;-79
2021/03/06 03:37:50;;;;;;;;;;;;;;;-2.15;88.27;100687.34;5047810;28;19921;-78
2021/03/06 03:40:16;;;;;;;;;;;;;;;-2.22;87.39;100682.81;5033280;28;19916;-79
2021/03/06 03:42:41;;;;;;;;;;;;;;;-2.42;87.42;100681.84;5016979;28;20293;-79
2021/03/06 03:45:08;;;;;;;;;;;;;;;-2.50;88.26;100682.31;5047219;28;19912;-78
2021/03/06 03:47:34;;;;;;;;;;;;;;;-2.37;87.23;100679.59;5050758;28;19928;-79
2021/03/06 03:49:59;;;;;;;;;;;;;;;-1.98;87.26;100679.69;5049921;28;19916;-78
2021/03/06 03:52:24;;;;;;;;;;;;;;;-2.42;87.82;100681.00;5047873;28;19920;-79
2021/03/06 03:54:50;;;;;;;;;;;;;;;-2.37;88.25;100682.97;5031278;28;20304;-78
2021/03/06 03:57:15;;;;;;;;;;;;;;;-2.15;88.12;100679.75;5016126;28;19912;-79
2021/03/06 03:59:41;;;;;;;;;;;;;;;-1.95;87.11;100677.28;5053096;28;19924;-79
2021/03/06 04:02:06;;;;;;;;;;;;;;;-2.29;87.57;100685.84;5015411;28;20023;-78
2021/03/06 04:04:32;;;;;;;;;;;;;;;-2.16;87.52;100684.75;5048981;28;20013;-79
2021/03/06 04:06:58;;;;;;;;;;;;;;;-2.07;88.09;100684.31;5051890;28;19917;-78
2021/03/06 04:09:23;;;;;;;;;;;;;;;-1.92;86.94;100685.00;5051092;28;20620;-79
2021/03/06 04:11:49;;;;;;;;;;;;;;;-1.94;86.70;100691.63;5051477;28;19920;-78
2021/03/06 04:14:14;;;;;;;;;;;;;;;-2.01;86.86;100694.69;5049044;28;19934;-78
2021/03/06 04:16:40;;;;;;;;;;;;;;;-2.54;88.73;100692.25;5032117;28;19917;-79
2021/03/06 04:19:05;;;;;;;;;;;;;;;-2.14;88.21;100699.19;5035415;28;21113;-78
2021/03/06 04:21:31;;;;;;;;;;;;;;;-2.11;88.06;100693.41;5049062;28;19929;-78
2021/03/06 04:23:56;;;;;;;;;;;;;;;-1.95;87.29;100689.91;5033748;28;20011;-78
2021/03/06 04:26:22;;;;;;;;;;;;;;;-2.27;88.00;100694.34;5032178;28;20666;-78
2021/03/06 04:28:47;;;;;;;;;;;;;;;-2.06;88.22;100701.19;5048671;28;19924;-78
2021/03/06 04:31:12;;;;;;;;;;;;;;;-2.17;88.37;100704.06;5030334;28;19923;-78
2021/03/06 04:33:38;;;;;;;;;;;;;;;-2.23;88.65;100698.75;5023263;28;20273;-78
2021/03/06 04:36:04;;;;;;;;;;;;;;;-2.31;89.14;100707.59;5053024;28;19985;-79
2021/03/06 04:38:29;;;;;;;;;;;;;;;-2.12;88.30;100712.72;5037347;28;20057;-78
2021/03/06 04:40:54;;;;;;;;;;;;;;;-2.06;88.09;100711.28;5035374;28;19921;-78
2021/03/06 04:43:20;;;;;;;;;;;;;;;-2.07;88.11;100709.56;5052870;28;19920;-78
2021/03/06 04:45:46;;;;;;;;;;;;;;;-2.28;88.95;100712.81;5036509;28;19917;-78
2021/03/06 04:48:11;;;;;;;;;;;;;;;-2.22;88.20;100710.56;5055054;28;19975;-78
2021/03/06 04:50:36;;;;;;;;;;;;;;;-2.19;88.21;100710.72;5019349;28;20012;-78
2021/03/06 04:53:02;;;;;;;;;;;;;;;-2.46;88.91;100712.81;5037303;28;19921;-79
2021/03/06 04:55:27;;;;;;;;;;;;;;;-2.28;88.17;100710.28;5052184;28;19917;-78
2021/03/06 04:57:53;;;;;;;;;;;;;;;-2.18;88.11;100712.44;5053164;28;19916;-79
2021/03/06 05:00:18;;;;;;;;;;;;;;;-2.15;87.59;100715.09;5053155;28;19921;-79
2021/03/06 05:02:44;;;;;;;;;;;;;;;-2.24;88.29;100716.34;5036188;28;19931;-79
2021/03/06 05:05:09;;;;;;;;;;;;;;;-2.16;88.45;100712.53;5053004;28;19913;-78
2021/03/06 05:07:35;;;;;;;;;;;;;;;-2.43;88.60;100714.59;5021506;28;19986;-77
2021/03/06 05:10:00;;;;;;;;;;;;;;;-2.22;87.83;100715.59;5055197;28;20394;-79
2021/03/06 05:12:26;;;;;;;;;;;;;;;-2.02;87.48;100708.13;5050700;28;19921;-78
2021/03/06 05:14:51;;;;;;;;;;;;;;;-2.34;88.08;100705.81;5038275;28;20141;-79
2021/03/06 05:17:17;;;;;;;;;;;;;;;-2.21;87.58;100707.25;5054174;28;20397;-78
2021/03/06 05:19:42;;;;;;;;;;;;;;;-2.38;88.50;100713.16;5054560;28;19916;-77
2021/03/06 05:22:07;;;;;;;;;;;;;;;-2.25;88.10;100717.13;5055252;28;20569;-78
2021/03/06 05:24:33;;;;;;;;;;;;;;;-2.19;87.73;100715.78;5054647;28;20021;-78
2021/03/06 05:27:01;;;;;;;;;;;;;;;-2.48;87.66;100713.53;5035410;28;20039;-78
2021/03/06 05:29:30;;;;;;;;;;;;;;;-2.39;87.68;100711.44;5037850;28;19931;-79
2021/03/06 05:31:56;;;;;;;;;;;;;;;-2.23;87.73;100724.00;5050095;28;19955;-78
2021/03/06 05:34:21;;;;;;;;;;;;;;;-2.46;88.39;100715.31;5055265;28;19991;-78
2021/03/06 05:36:47;;;;;;;;;;;;;;;-2.28;87.85;100717.88;5021936;28;19912;-78
2021/03/06 05:39:12;;;;;;;;;;;;;;;-2.56;88.62;100714.00;5053868;28;20911;-78
2021/03/06 05:41:38;;;;;;;;;;;;;;;-2.22;87.76;100720.66;5055965;28;19920;-78
2021/03/06 05:44:03;;;;;;;;;;;;;;;-2.36;87.62;100716.63;5053356;28;21012;-79
2021/03/06 05:46:29;;;;;;;;;;;;;;;-2.25;87.75;100725.56;5036521;28;20027;-78
2021/03/06 05:48:54;;;;;;;;;;;;;;;-2.21;87.20;100729.09;5036413;28;19927;-78
2021/03/06 05:51:20;;;;;;;;;;;;;;;-2.29;87.96;100730.41;5053212;28;19974;-78
2021/03/06 05:53:45;;;;;;;;;;;;;;;-2.41;87.79;100730.69;5053265;28;20474;-79
2021/03/06 05:56:10;;;;;;;;;;;;;;;-2.23;87.82;100729.03;5053114;28;20471;-79
2021/03/06 05:58:37;;;;;;;;;;;;;;;-2.54;88.52;100731.75;5052360;28;20436;-79
2021/03/06 06:01:03;;;;;;;;;;;;;;;-2.55;88.50;100730.88;5051633;28;20023;-78
2021/03/06 06:03:28;;;;;;;;;;;;;;;-2.41;88.34;100728.16;5037008;28;20014;-79
2021/03/06 06:05:54;;;;;;;;;;;;;;;-2.50;88.49;100733.63;5035923;28;20169;-78
2021/03/06 06:08:19;;;;;;;;;;;;;;;-2.40;88.20;100733.25;5036971;28;19923;-78
2021/03/06 06:10:44;;;;;;;;;;;;;;;-2.21;87.37;100732.50;5051709;28;19956;-78
2021/03/06 06:13:10;;;;;;;;;;;;;;;-2.19;87.24;100730.03;5033666;28;19956;-79
2021/03/06 06:15:35;;;;;;;;;;;;;;;-2.54;88.75;100732.59;5035992;28;20006;-78
2021/03/06 06:18:02;;;;;;;;;;;;;;;-2.48;88.61;100731.19;5018034;28;19928;-78
2021/03/06 06:20:27;;;;;;;;;;;;;;;-2.40;88.52;100724.84;5034659;28;19921;-78
2021/03/06 06:23:09;;;;;;;;;;;;;;;-2.44;88.63;100730.50;5030930;28;19931;-78
2021/03/06 06:25:34;;;;;;;;;;;;;;;-2.13;87.81;100741.28;5050382;28;19912;-78
2021/03/06 06:28:03;;;;;;;;;;;;;;;-2.24;87.82;100741.56;5049684;28;20296;-78
2021/03/06 06:30:29;;;;;;;;;;;;;;;-2.23;88.15;100749.22;5051816;28;19920;-77
2021/03/06 06:32:54;;;;;;;;;;;;;;;-2.32;87.99;100749.66;4996698;28;19921;-78
2021/03/06 06:35:19;;;;;;;;;;;;;;;-1.91;87.11;100749.88;5033874;28;20075;-78
2021/03/06 06:37:57;;;;;;;;;;;;;;;-2.28;87.11;100755.72;5051186;28;20379;-79
2021/03/06 06:40:23;;;;;;;;;;;;;;;-1.95;87.08;100765.66;5026043;28;19920;-77
2021/03/06 06:42:49;;;;;;;;;;;;;;;-2.11;87.42;100759.88;5051367;28;19917;-77
2021/03/06 06:45:16;;;;;;;;;;;;;;;-2.17;88.07;100762.09;5031728;28;19939;-79
2021/03/06 06:47:42;;;;;;;;;;;;;;;-2.26;88.04;100764.19;5025161;28;19969;-78
2021/03/06 06:50:08;;;;;;;;;;;;;;;-2.04;88.04;100768.63;5050194;28;19961;-78
2021/03/06 06:52:37;;;;;;;;;;;;;;;-2.37;89.09;100762.84;5034860;28;19923;-79
2021/03/06 06:55:03;;;;;;;;;;;;;;;-2.01;88.38;100771.28;5049852;28;19925;-79
2021/03/06 06:57:29;;;;;;;;;;;;;;;-2.14;88.32;100769.84;5051305;28;20184;-79
2021/03/06 07:00:05;;;;;;;;;;;;;;;-2.38;90.18;100771.19;5052355;28;19924;-79
2021/03/06 07:02:30;;;;;;;;;;;;;;;-2.00;88.67;100773.03;5051587;28;19916;-78
2021/03/06 07:04:56;;;;;;;;;;;;;;;-1.85;88.33;100782.97;5004813;28;19928;-79
2021/03/06 07:07:23;;;;;;;;;;;;;;;-1.79;88.50;100778.19;5029041;28;19928;-79
2021/03/06 07:09:54;;;;;;;;;;;;;;;-1.64;87.80;100775.53;5049007;28;19920;-78
2021/03/06 07:12:20;;;;;;;;;;;;;;;-2.02;89.03;100778.78;5047350;28;19931;-79
2021/03/06 07:14:45;;;;;;;;;;;;;;;-1.99;89.32;100779.78;5035243;28;20297;-79
2021/03/06 07:17:11;;;;;;;;;;;;;;;-1.69;88.15;100777.84;5048799;28;19927;-78
2021/03/06 07:19:40;;;;;;;;;;;;;;;-1.41;87.41;100779.09;5050492;28;20410;-79
2021/03/06 07:22:05;;;;;;;;;;;;;;;-1.36;87.10;100780.16;5030713;28;20045;-79
2021/03/06 07:24:30;;;;;;;;;;;;;;;-1.25;87.29;100775.59;5050032;28;20426;-79
2021/03/06 07:26:56;;;;;;;;;;;;;;;-1.06;86.49;100774.72;5049526;28;19924;-79
2021/03/06 07:29:21;;;;;;;;;;;;;;;-1.14;87.02;100776.91;5016476;28;19925;-79
2021/03/06 07:31:51;;;;;;;;;;;;;;;-0.88;86.26;100775.50;5050731;28;20016;-78
2021/03/06 07:34:17;;;;;;;;;;;;;;;-0.82;85.93;100774.03;5048780;28;20040;-78
2021/03/06 07:36:43;;;;;;;;;;;;;;;-0.49;84.91;100772.91;5034206;28;20382;-78
2021/03/06 07:39:08;;;;;;;;;;;;;;;-0.47;84.28;100778.03;5030940;28;19929;-78
2021/03/06 07:41:38;;;;;;;;;;;;;;;-0.08;83.14;100777.91;5033281;28;19916;-78
2021/03/06 07:44:04;;;;;;;;;;;;;;;-0.02;83.33;100784.09;5031669;28;20007;-78
2021/03/06 07:46:29;;;;;;;;;;;;;;;-0.28;83.53;100782.19;5032257;28;19999;-78
2021/03/06 07:48:54;;;;;;;;;;;;;;;-0.01;83.29;100777.34;5030682;28;19927;-78
2021/03/06 07:51:21;;;;;;;;;;;;;;;0.14;83.29;100782.16;5031028;28;19919;-78
2021/03/06 07:53:46;;;;;;;;;;;;;;;0.39;81.55;100784.81;5048191;28;19932;-78
2021/03/06 07:56:12;;;;;;;;;;;;;;;-0.02;81.84;100790.84;5033027;28;19920;-78
2021/03/06 07:58:47;;;;;;;;;;;;;;;0.15;82.10;100783.88;5030560;28;19908;-78
2021/03/06 08:01:43;;;;;;;;;;;;;;;0.36;82.42;100794.81;5051941;28;20737;-78
2021/03/06 08:04:17;;;;;;;;;;;;;;;1.22;80.08;100792.88;5023280;28;20430;-78
2021/03/06 08:06:42;;;;;;;;;;;;;;;1.54;79.20;100798.19;5033668;28;20584;-78
2021/03/06 08:09:09;;;;;;;;;;;;;;;1.34;78.56;100804.25;5030346;28;19921;-78
2021/03/06 08:11:34;;;;;;;;;;;;;;;1.38;77.66;100812.03;5049512;28;19932;-78
2021/03/06 08:14:01;;;;;;;;;;;;;;;1.64;77.53;100805.31;5048142;28;20275;-77
2021/03/06 08:16:27;;;;;;;;;;;;;;;2.18;76.70;100807.00;5031456;28;20015;-77
2021/03/06 08:18:52;;;;;;;;;;;;;;;2.06;76.33;100804.97;5050499;28;20015;-78
2021/03/06 08:21:30;;;;;;;;;;;;;;;2.29;74.42;100799.72;5048859;28;19995;-77
2021/03/06 08:24:14;;;;;;;;;;;;;;;2.60;75.30;100803.16;5049162;28;19975;-79
2021/03/06 08:26:40;;;;;;;;;;;;;;;2.89;74.24;100806.56;5047672;28;19986;-78
2021/03/06 08:29:24;;;;;;;;;;;;;;;3.17;71.34;100803.09;5033522;28;20781;-79
2021/03/06 08:31:55;;;;;;;;;;;;;;;1.98;68.79;100811.47;5053915;28;19927;-79
2021/03/06 08:34:27;;;;;;;;;;;;;;;1.87;68.21;100817.88;5046662;28;19957;-80
2021/03/06 08:37:11;;;;;;;;;;;;;;;1.62;68.86;100811.13;5051666;28;20835;-80
2021/03/06 08:39:37;;;;;;;;;;;;;;;2.45;68.98;100809.53;5054080;28;19923;-79
2021/03/06 08:42:02;;;;;;;;;;;;;;;2.43;68.48;100813.72;5033332;28;19920;-78
2021/03/06 08:44:27;;;;;;;;;;;;;;;2.65;69.08;100814.38;5050471;28;19951;-79
2021/03/06 08:46:53;;;;;;;;;;;;;;;3.67;67.16;100805.22;5050303;28;19920;-78
2021/03/06 08:49:18;;;;;;;;;;;;;;;3.41;65.09;100804.56;5024137;28;19920;-79
2021/03/06 08:51:43;;;;;;;;;;;;;;;3.84;63.74;100803.09;5024089;28;19927;-79
2021/03/06 08:54:09;;;;;;;;;;;;;;;3.47;67.58;100807.28;5050292;28;19920;-79
2021/03/06 08:56:38;;;;;;;;;;;;;;;2.79;67.06;100810.53;5020477;28;20645;-79
2021/03/06 08:59:03;;;;;;;;;;;;;;;3.09;64.61;100813.06;5054875;28;19979;-80
2021/03/06 09:01:33;;;;;;;;;;;;;;;4.48;66.97;100796.94;5051958;28;19924;-80
2021/03/06 09:03:58;;;;;;;;;;;;;;;3.15;67.86;100804.75;5039778;28;20378;-80
2021/03/06 09:06:33;;;;;;;;;;;;;;;3.34;69.50;100796.75;5037680;28;19926;-78
2021/03/06 09:08:58;;;;;;;;;;;;;;;3.19;69.48;100801.44;5026430;28;20016;-78
2021/03/06 09:11:25;;;;;;;;;;;;;;;3.81;69.45;100795.38;5051615;28;20007;-77
2021/03/06 09:13:50;;;;;;;;;;;;;;;4.89;65.10;100796.94;5032971;28;19939;-79
2021/03/06 09:16:16;;;;;;;;;;;;;;;4.47;67.30;100805.44;5054192;28;19917;-79
2021/03/06 09:18:41;;;;;;;;;;;;;;;4.19;69.17;100806.47;5053416;28;19921;-79
2021/03/06 09:21:09;;;;;;;;;;;;;;;4.38;66.52;100807.78;5055874;28;20690;-79
2021/03/06 09:23:34;;;;;;;;;;;;;;;3.45;67.89;100814.03;5056134;28;19917;-75
2021/03/06 09:26:05;;;;;;;;;;;;;;;3.21;71.57;100820.16;5036282;28;20451;-77
2021/03/06 09:28:30;;;;;;;;;;;;;;;3.76;69.32;100810.53;5050741;28;20027;-79
2021/03/06 09:30:56;;;;;;;;;;;;;;;3.51;69.79;100820.16;5038569;28;20007;-76
2021/03/06 09:33:32;;;;;;;;;;;;;;;3.14;72.01;100829.31;5042347;28;19960;-78
2021/03/06 09:35:57;;;;;;;;;;;;;;;4.06;67.89;100822.31;5053485;28;20008;-76
2021/03/06 09:38:23;;;;;;;;;;;;;;;5.43;64.69;100806.47;5055755;28;20437;-75
2021/03/06 09:40:48;;;;;;;;;;;;;;;4.59;67.73;100813.34;5056976;28;19930;-77
2021/03/06 09:43:14;;;;;;;;;;;;;;;4.10;69.91;100821.56;5055261;28;19923;-74
2021/03/06 09:45:40;;;;;;;;;;;;;;;4.65;69.48;100816.84;5056333;28;19922;-77
2021/03/06 09:48:11;;;;;;;;;;;;;;;4.23;68.25;100823.56;5054879;28;20007;-79
2021/03/06 09:50:36;;;;;;;;;;;;;;;4.59;70.11;100813.34;5054535;28;19956;-77
2021/03/06 09:53:12;;;;;;;;;;;;;;;4.07;65.23;100819.81;5006733;28;19920;-78
2021/03/06 09:55:37;;;;;;;;;;;;;;;4.86;68.77;100822.41;5041275;28;20378;-78
2021/03/06 09:58:15;;;;;;;;;;;;;;;3.44;70.36;100827.56;5029447;28;20001;-79
2021/03/06 10:00:41;;;;;;;;;;;;;;;3.82;67.14;100820.03;5018927;28;20023;-77
2021/03/06 10:03:06;;;;;;;;;;;;;;;4.74;69.43;100817.03;5037137;28;20000;-79
2021/03/06 10:05:31;;;;;;;;;;;;;;;4.13;69.38;100822.50;5027667;28;19923;-77
2021/03/06 10:07:57;;;;;;;;;;;;;;;4.56;67.31;100818.38;5057857;28;19920;-78
2021/03/06 10:10:24;;;;;;;;;;;;;;;5.47;68.02;100820.16;5038581;28;19974;-79
2021/03/06 10:12:50;;;;;;;;;;;;;;;5.39;71.81;100814.91;5024432;28;19968;-78
2021/03/06 10:15:16;;;;;;;;;;;;;;;4.61;68.59;100821.88;5058982;28;19974;-79
2021/03/06 10:17:41;;;;;;;;;;;;;;;4.49;70.09;100821.59;5056075;28;19979;-79
2021/03/06 10:20:07;;;;;;;;;;;;;;;4.72;69.63;100828.88;5056471;28;19927;-77
2021/03/06 10:22:42;;;;;;;;;;;;;;;4.30;69.76;100829.69;5041476;28;19932;-78
2021/03/06 10:25:07;;;;;;;;;;;;;;;3.29;68.67;100841.63;5026846;28;19916;-78
2021/03/06 10:27:33;;;;;;;;;;;;;;;3.13;70.75;100842.03;5037404;28;20982;-77
2021/03/06 10:30:09;;;;;;;;;;;;;;;4.23;72.28;100827.81;5053660;28;20011;-77
2021/03/06 10:32:55;;;;;;;;;;;;;;;3.98;69.13;100832.34;5035419;28;20019;-78
2021/03/06 10:35:33;;;;;;;;;;;;;;;4.63;67.11;100828.69;5049843;28;19928;-78
2021/03/06 10:37:59;;;;;;;;;;;;;;;4.61;65.34;100827.00;5049279;28;19916;-78
2021/03/06 10:40:43;;;;;;;;;;;;;;;5.70;62.80;100828.22;5050996;28;19921;-78
2021/03/06 10:43:08;;;;;;;;;;;;;;;6.35;63.82;100825.03;5050247;28;20035;-78
2021/03/06 10:45:34;;;;;;;;;;;;;;;4.66;64.30;100826.22;5033771;28;20007;-78
2021/03/06 10:48:00;;;;;;;;;;;;;;;4.51;64.28;100819.09;5047935;28;20007;-77
2021/03/06 10:50:29;;;;;;;;;;;;;;;6.78;65.03;100805.13;5033299;28;20007;-77
2021/03/06 10:53:09;;;;;;;;;;;;;;;6.37;62.51;100809.72;5025255;28;19921;-77
2021/03/06 10:55:35;;;;;;;;;;;;;;;7.47;63.22;100805.88;5027159;28;19917;-77
2021/03/06 10:58:01;;;;;;;;;;;;;;;6.77;59.41;100808.50;5025509;28;19918;-78
2021/03/06 11:00:26;;;;;;;;;;;;;;;6.68;58.28;100806.72;5053214;28;20008;-79
2021/03/06 11:02:55;;;;;;;;;;;;;;;7.43;59.72;100806.69;5015581;28;19921;-78
2021/03/06 11:05:21;;;;;;;;;;;;;;;7.56;61.13;100789.75;5033023;28;20019;-79
2021/03/06 11:07:47;;;;;;;;;;;;;;;6.87;56.59;100801.84;5052551;28;20409;-78
2021/03/06 11:10:12;;;;;;;;;;;;;;;7.36;61.88;100794.66;5052885;28;20428;-77
2021/03/06 11:12:38;;;;;;;;;;;;;;;5.99;59.42;100792.09;5049966;28;20011;-78
2021/03/06 11:15:10;;;;;;;;;;;;;;;6.87;64.56;100796.72;5026069;28;19917;-79
2021/03/06 11:17:35;;;;;;;;;;;;;;;6.30;62.53;100787.44;5050114;28;19917;-79
2021/03/06 11:20:01;;;;;;;;;;;;;;;5.87;62.98;100796.13;5046874;28;19924;-78
2021/03/06 11:22:27;;;;;;;;;;;;;;;6.55;58.74;100786.94;5048465;28;20023;-78
2021/03/06 11:24:53;;;;;;;;;;;;;;;6.27;62.56;100790.78;5022715;28;19921;-79
2021/03/06 11:27:18;;;;;;;;;;;;;;;4.73;58.11;100794.91;5036788;28;19920;-77
2021/03/06 11:29:44;;;;;;;;;;;;;;;5.21;58.45;100786.47;5032362;28;19928;-77
2021/03/06 11:32:09;;;;;;;;;;;;;;;6.12;54.45;100782.91;5019992;28;19921;-80
2021/03/06 11:34:34;;;;;;;;;;;;;;;7.27;55.70;100774.06;5051529;28;20682;-78
2021/03/06 11:37:00;;;;;;;;;;;;;;;8.17;58.88;100766.25;5035169;28;20632;-79
2021/03/06 11:39:25;;;;;;;;;;;;;;;8.11;56.08;100771.34;5023538;28;19926;-77
2021/03/06 11:41:50;;;;;;;;;;;;;;;8.72;59.58;100753.72;5048978;28;19924;-78
2021/03/06 11:44:16;;;;;;;;;;;;;;;8.49;58.21;100756.19;5050135;28;19971;-79
2021/03/06 11:46:41;;;;;;;;;;;;;;;7.83;55.54;100750.63;5049353;28;19924;-80
2021/03/06 11:49:07;;;;;;;;;;;;;;;6.83;55.97;100753.97;5048237;28;19920;-77
2021/03/06 11:51:33;;;;;;;;;;;;;;;7.00;53.47;100751.59;5050446;28;20020;-78
2021/03/06 11:53:58;;;;;;;;;;;;;;;9.06;52.98;100727.28;5032667;28;19920;-79
2021/03/06 11:56:23;;;;;;;;;;;;;;;9.71;51.20;100730.75;5048834;28;19923;-79
2021/03/06 11:58:49;;;;;;;;;;;;;;;9.68;52.93;100723.03;5051481;28;20349;-79
2021/03/06 12:01:14;;;;;;;;;;;;;;;9.91;47.34;100715.28;5025015;28;20362;-80
2021/03/06 12:03:40;;;;;;;;;;;;;;;10.23;48.04;100712.63;5025032;28;19924;-79
2021/03/06 12:06:05;;;;;;;;;;;;;;;10.21;55.87;100697.19;5033564;28;20274;-78
2021/03/06 12:08:30;;;;;;;;;;;;;;;9.98;45.65;100702.38;5009658;28;19925;-80
2021/03/06 12:10:56;;;;;;;;;;;;;;;9.17;47.51;100695.59;5036536;28;19916;-79
2021/03/06 12:13:21;;;;;;;;;;;;;;;7.41;50.04;100703.31;5050868;28;20366;-79
2021/03/06 12:15:46;;;;;;;;;;;;;;;8.75;55.87;100692.06;5050649;28;19927;-78
2021/03/06 12:18:12;;;;;;;;;;;;;;;8.72;48.36;100686.09;5016091;28;19917;-79
2021/03/06 12:20:37;;;;;;;;;;;;;;;8.74;53.51;100681.81;5048316;28;19936;-78
2021/03/06 12:23:02;;;;;;;;;;;;;;;9.60;48.58;100675.03;5050239;28;19924;-79
2021/03/06 12:25:28;;;;;;;;;;;;;;;9.96;47.83;100667.22;5048060;28;20433;-78
2021/03/06 12:27:53;;;;;;;;;;;;;;;10.15;51.42;100660.28;5032308;28;19927;-79
2021/03/06 12:30:19;;;;;;;;;;;;;;;9.49;52.69;100670.72;5048796;28;19924;-79
2021/03/06 12:32:46;;;;;;;;;;;;;;;8.49;52.49;100670.63;5047762;28;19916;-79
2021/03/06 12:35:12;;;;;;;;;;;;;;;8.92;58.94;100657.88;5028298;28;19921;-79
2021/03/06 12:37:37;;;;;;;;;;;;;;;8.02;49.59;100659.25;5048443;28;20493;-80
2021/03/06 12:40:03;;;;;;;;;;;;;;;10.43;53.48;100643.91;5023382;28;20017;-78